Time;durP1;ratioP1;P1;durP2;ratioP2;P2;SDS_P1;SDS_P2;PMS_P1;PMS_P2;Temp;Humidity;BMP_temperature;BMP_pressure;BME280_temperature;BME280_humidity;BME280_pressure;Samples;Min_cycle;Max_cycle;Signal;HPM_P1;HPM_P2
2022/01/26 00:07:43;;;;;;;285.00;137.30;;;3.20;55.60;;;;;;5052891;28;20040;-60
2022/01/26 00:10:08;;;;;;;269.40;130.50;;;3.00;56.70;;;;;;5054497;28;20029;-61
2022/01/26 00:12:34;;;;;;;280.17;122.03;;;2.90;57.50;;;;;;5056906;28;20017;-59
2022/01/26 00:15:00;;;;;;;356.83;144.52;;;2.80;56.10;;;;;;5056913;28;20539;-60
2022/01/26 00:17:25;;;;;;;350.67;143.77;;;2.80;54.50;;;;;;5056767;28;20028;-57
2022/01/26 00:20:02;;;;;;;275.10;121.78;;;2.70;53.90;;;;;;5057174;28;20021;-60
2022/01/26 00:38:39;;;;;;;233.15;101.93;;;3.20;52.00;;;;;;5056696;28;20060;-60
2022/01/26 00:41:11;;;;;;;217.88;101.82;;;3.10;51.60;;;;;;5056544;28;20025;-59
2022/01/26 00:43:41;;;;;;;222.45;101.63;;;3.10;50.20;;;;;;5056772;28;20075;-59
2022/01/26 00:46:08;;;;;;;228.48;106.15;;;3.00;50.30;;;;;;5056392;28;20039;-61
2022/01/26 00:48:37;;;;;;;202.07;98.13;;;2.80;50.80;;;;;;5055987;28;20029;-58
2022/01/26 00:51:05;;;;;;;185.45;87.13;;;2.70;52.00;;;;;;5056278;28;20033;-60
2022/01/26 00:53:44;;;;;;;166.52;79.88;;;2.90;52.60;;;;;;5056504;28;20021;-58
2022/01/26 00:56:10;;;;;;;161.85;79.63;;;3.10;52.30;;;;;;5056121;28;20022;-61
2022/01/26 00:58:36;;;;;;;159.65;75.20;;;3.20;50.80;;;;;;5056415;28;20056;-60
2022/01/26 01:01:03;;;;;;;157.93;76.75;;;3.30;51.50;;;;;;5056069;28;20056;-59
2022/01/26 01:03:32;;;;;;;205.52;93.60;;;3.40;52.00;;;;;;5055835;28;20028;-60
2022/01/26 01:06:00;;;;;;;213.45;99.28;;;3.40;52.40;;;;;;5055988;28;20526;-59
2022/01/26 01:08:26;;;;;;;215.45;99.43;;;3.30;52.80;;;;;;5055844;28;20029;-60
2022/01/26 01:10:53;;;;;;;209.73;97.95;;;3.20;52.70;;;;;;5056116;28;20037;-60
2022/01/26 01:13:29;;;;;;;206.77;93.15;;;3.30;53.10;;;;;;5055861;28;20153;-61
2022/01/26 01:15:55;;;;;;;170.93;82.05;;;3.30;52.50;;;;;;5055645;28;20025;-58
2022/01/26 01:18:27;;;;;;;234.57;102.53;;;3.40;53.90;;;;;;5055904;28;20086;-59
2022/01/26 01:23:43;;;;;;;371.13;143.25;;;3.40;52.80;;;;;;5055433;28;20043;-61
2022/01/26 01:31:18;;;;;;;355.80;145.57;;;3.20;53.70;;;;;;5055634;28;20379;-61
2022/01/26 01:33:47;;;;;;;305.15;130.65;;;3.20;52.60;;;;;;5055765;28;20044;-61
2022/01/26 01:36:14;;;;;;;345.63;141.25;;;3.10;52.40;;;;;;5055188;28;20049;-60
2022/01/26 01:38:42;;;;;;;267.88;118.35;;;3.20;52.20;;;;;;5055657;28;20033;-59
2022/01/26 01:41:08;;;;;;;262.83;113.25;;;3.30;53.30;;;;;;5055416;28;20103;-60
2022/01/26 01:43:34;;;;;;;225.52;102.78;;;3.40;53.30;;;;;;5055244;28;20113;-59
2022/01/26 01:46:01;;;;;;;267.58;115.70;;;3.40;54.20;;;;;;5055161;28;20075;-58
2022/01/26 01:48:30;;;;;;;261.75;114.78;;;3.50;52.30;;;;;;5055175;28;20025;-58
2022/01/26 01:50:59;;;;;;;206.15;92.18;;;3.50;52.60;;;;;;5055175;28;20025;-57
2022/01/26 01:53:35;;;;;;;247.65;106.07;;;3.50;53.20;;;;;;5055429;28;20063;-60
2022/01/26 01:56:01;;;;;;;203.25;92.97;;;3.60;52.30;;;;;;5055036;28;20562;-61
2022/01/26 01:58:28;;;;;;;258.85;117.85;;;3.60;52.10;;;;;;5055315;28;20025;-57
2022/01/26 02:00:54;;;;;;;204.70;97.30;;;3.70;50.90;;;;;;5054860;28;20024;-60
2022/01/26 02:03:20;;;;;;;209.27;96.97;;;3.70;51.00;;;;;;5054918;28;20037;-59
2022/01/26 02:05:45;;;;;;;199.57;95.65;;;3.70;51.00;;;;;;5054995;28;20092;-59
2022/01/26 02:08:11;;;;;;;215.10;99.28;;;3.70;51.10;;;;;;5054921;28;20032;-60
2022/01/26 02:10:38;;;;;;;179.15;87.30;;;3.70;50.60;;;;;;5054833;28;20025;-61
2022/01/26 02:13:16;;;;;;;188.75;88.82;;;3.70;50.00;;;;;;5054677;28;20028;-60
2022/01/26 02:15:50;;;;;;;184.52;86.55;;;3.70;50.30;;;;;;5054768;28;20379;-59
2022/01/26 02:56:21;;;;;;;192.52;92.45;;;3.10;57.10;;;;;;5053894;28;20462;-58
2022/01/26 03:06:36;;;;;;;235.57;109.13;;;3.00;57.80;;;;;;5054009;28;20051;-60
2022/01/26 03:09:09;;;;;;;227.23;109.65;;;2.90;57.80;;;;;;5053772;28;20111;-61
2022/01/26 03:11:37;;;;;;;178.10;89.22;;;2.80;57.30;;;;;;5053708;28;20072;-61
2022/01/26 03:14:17;;;;;;;160.68;79.28;;;2.80;59.10;;;;;;5053803;28;20024;-60
2022/01/26 03:16:49;;;;;;;142.32;70.55;;;2.70;58.80;;;;;;5053885;28;20108;-56
2022/01/26 03:30:00;;;;;;;160.32;73.82;;;3.30;57.30;;;;;;5053428;28;20051;-59
2022/01/26 03:35:16;;;;;;;142.90;69.43;;;3.20;57.60;;;;;;5053357;28;20098;-60
2022/01/26 03:37:51;;;;;;;137.25;67.38;;;3.10;59.80;;;;;;5053144;28;20091;-59
2022/01/26 03:40:17;;;;;;;143.38;68.85;;;3.00;59.70;;;;;;5053010;28;20052;-60
2022/01/26 03:42:43;;;;;;;133.88;67.57;;;2.90;61.60;;;;;;5053177;28;20052;-60
2022/01/26 03:45:09;;;;;;;140.07;68.10;;;2.80;59.20;;;;;;5052927;28;20100;-59
2022/01/26 03:47:35;;;;;;;130.25;64.18;;;2.80;59.90;;;;;;5053321;28;20082;-57
2022/01/26 03:50:01;;;;;;;131.95;62.38;;;2.80;61.10;;;;;;5053307;28;20025;-60
2022/01/26 03:52:26;;;;;;;125.80;61.40;;;2.70;60.00;;;;;;5053187;28;20474;-59
2022/01/26 03:54:52;;;;;;;121.07;59.50;;;2.80;59.30;;;;;;5052880;28;20021;-60
2022/01/26 03:57:18;;;;;;;115.40;59.63;;;2.80;59.10;;;;;;5053075;28;20028;-61
2022/01/26 03:59:43;;;;;;;109.85;55.10;;;2.80;59.90;;;;;;5053114;28;20494;-60
2022/01/26 04:02:09;;;;;;;107.40;52.25;;;2.90;60.90;;;;;;5053039;28;20067;-60
2022/01/26 04:04:43;;;;;;;111.63;53.33;;;3.00;58.90;;;;;;5053011;28;20029;-59
2022/01/26 04:07:09;;;;;;;;;;;3.00;58.50;;;;;;5053396;28;20017;-61
2022/01/26 04:09:34;;;;;;;121.35;61.72;;;3.00;59.60;;;;;;5053038;28;19920;-60
2022/01/26 04:12:00;;;;;;;106.70;54.63;;;2.90;60.40;;;;;;5052637;28;20017;-58
2022/01/26 04:14:30;;;;;;;189.20;81.22;;;2.90;61.50;;;;;;5052981;28;20021;-59
2022/01/26 04:16:56;;;;;;;157.48;70.68;;;3.10;57.70;;;;;;5052983;28;20021;-55
2022/01/26 04:19:22;;;;;;;211.85;93.95;;;3.20;57.30;;;;;;5052766;28;20028;-59
2022/01/26 04:22:28;;;;;;;188.88;89.28;;;3.30;56.90;;;;;;5052979;28;20079;-61
2022/01/26 04:24:45;;;;;;;232.52;103.13;;;3.30;56.70;;;;;;5050522;28;20044;-58
2022/01/26 04:30:12;;;;;;;187.35;86.15;;;3.30;56.70;;;;;;5011053;28;20596;-60
2022/01/26 04:32:38;;;;;;;185.55;90.80;;;3.30;57.20;;;;;;5044235;28;20033;-58
2022/01/26 04:35:04;;;;;;;196.30;96.47;;;3.30;56.50;;;;;;5052661;28;20024;-61
2022/01/26 04:37:51;;;;;;;252.02;118.35;;;3.40;56.00;;;;;;5052556;28;20048;-61
2022/01/26 04:40:17;;;;;;;190.15;95.57;;;3.40;56.00;;;;;;5052059;28;20033;-60
2022/01/26 04:43:00;;;;;;;225.30;106.68;;;3.40;56.50;;;;;;5052657;28;20068;-58
2022/01/26 04:45:25;;;;;;;188.45;93.15;;;3.40;57.50;;;;;;5052583;28;20021;-59
2022/01/26 04:47:51;;;;;;;191.48;92.90;;;3.20;57.00;;;;;;5052674;28;20021;-58
2022/01/26 04:50:17;;;;;;;221.68;109.72;;;3.30;56.30;;;;;;5052628;28;20423;-59
2022/01/26 04:52:45;;;;;;;204.45;102.88;;;3.40;55.70;;;;;;5052555;28;20017;-60
2022/01/26 04:55:11;;;;;;;174.73;86.30;;;3.40;55.00;;;;;;5052512;28;20051;-60
2022/01/26 04:57:37;;;;;;;184.55;89.35;;;3.40;55.00;;;;;;5054887;28;20029;-60
2022/01/26 05:00:05;;;;;;;174.00;84.53;;;3.50;54.50;;;;;;5056241;28;20018;-61
2022/01/26 05:02:31;;;;;;;171.65;78.57;;;3.50;53.80;;;;;;5056276;28;20122;-60
2022/01/26 05:04:57;;;;;;;162.30;78.25;;;3.60;53.70;;;;;;5056064;28;20103;-57
2022/01/26 05:07:22;;;;;;;162.43;76.88;;;3.60;53.20;;;;;;5038294;28;20025;-60
2022/01/26 05:09:48;;;;;;;150.85;72.85;;;3.60;53.70;;;;;;5055750;28;20052;-59
2022/01/26 05:12:15;;;;;;;136.18;65.90;;;3.60;53.80;;;;;;5055806;28;20541;-60
2022/01/26 05:14:43;;;;;;;129.55;62.25;;;3.50;53.50;;;;;;5055931;28;20025;-59
2022/01/26 05:17:09;;;;;;;122.80;58.70;;;3.60;53.00;;;;;;5055825;28;20025;-59
2022/01/26 05:19:35;;;;;;;119.57;53.67;;;3.60;52.30;;;;;;5055879;28;20025;-60
2022/01/26 05:22:00;;;;;;;113.80;53.72;;;3.60;52.20;;;;;;5055572;28;20066;-58
2022/01/26 05:24:26;;;;;;;101.85;48.90;;;3.70;51.70;;;;;;5055616;28;20087;-59
2022/01/26 05:26:52;;;;;;;91.43;45.67;;;3.70;51.30;;;;;;5055940;28;20068;-60
2022/01/26 05:29:17;;;;;;;83.47;43.08;;;3.70;51.10;;;;;;5055597;28;20495;-57
2022/01/26 05:31:43;;;;;;;98.35;47.20;;;3.70;51.40;;;;;;5055463;28;20028;-60
2022/01/26 05:34:09;;;;;;;104.28;48.03;;;3.80;51.30;;;;;;5055502;28;20095;-61
2022/01/26 05:36:34;;;;;;;110.18;50.45;;;3.80;51.30;;;;;;5055230;28;20053;-59
2022/01/26 05:39:01;;;;;;;135.07;60.78;;;3.80;50.90;;;;;;5055463;28;20029;-61
2022/01/26 05:41:27;;;;;;;140.85;62.03;;;3.90;51.00;;;;;;5055362;28;20112;-61
2022/01/26 05:43:52;;;;;;;147.18;70.93;;;3.80;51.10;;;;;;5055430;28;20102;-60
2022/01/26 05:46:26;;;;;;;148.20;68.25;;;3.70;53.30;;;;;;5055321;28;20484;-61
2022/01/26 05:48:53;;;;;;;161.52;75.00;;;3.50;55.40;;;;;;5055325;28;20032;-61
2022/01/26 05:51:19;;;;;;;178.35;81.85;;;3.30;56.10;;;;;;5055507;28;20422;-60
2022/01/26 05:53:44;;;;;;;308.90;133.57;;;3.30;57.90;;;;;;5054965;28;20052;-61
2022/01/26 05:56:10;;;;;;;273.92;129.55;;;3.10;58.10;;;;;;5055011;28;20494;-61
2022/01/26 05:58:36;;;;;;;356.30;175.65;;;3.00;59.60;;;;;;5054993;28;20060;-60
2022/01/26 06:01:03;;;;;;;304.58;148.13;;;2.80;61.50;;;;;;5054983;28;20482;-61
2022/01/26 06:03:29;;;;;;;255.38;130.13;;;2.70;62.70;;;;;;5053748;28;20039;-60
2022/01/26 06:05:55;;;;;;;280.45;129.35;;;2.70;61.80;;;;;;5054078;28;20096;-60
2022/01/26 06:08:25;;;;;;;250.45;118.28;;;2.80;61.80;;;;;;5054329;28;20104;-59
2022/01/26 06:10:51;;;;;;;272.17;124.60;;;2.80;61.90;;;;;;5054604;28;20104;-61
2022/01/26 06:13:18;;;;;;;258.88;116.22;;;2.80;62.50;;;;;;5054421;28;20017;-58
2022/01/26 06:15:44;;;;;;;213.75;102.50;;;2.80;63.30;;;;;;5054671;28;20021;-60
2022/01/26 06:18:10;;;;;;;203.60;97.47;;;2.90;64.70;;;;;;5054298;28;20033;-61
2022/01/26 06:20:37;;;;;;;172.05;85.68;;;3.00;63.80;;;;;;5059974;28;20056;-60
2022/01/26 06:23:04;;;;;;;165.35;80.13;;;3.10;63.30;;;;;;5068005;28;20039;-61
2022/01/26 06:25:30;;;;;;;145.35;73.35;;;3.10;62.90;;;;;;5073796;28;20024;-59
2022/01/26 06:27:59;;;;;;;132.40;67.63;;;3.00;62.70;;;;;;5071173;28;20451;-60
2022/01/26 06:30:24;;;;;;;132.93;65.97;;;3.00;62.60;;;;;;5069108;28;20028;-59
2022/01/26 06:32:51;;;;;;;237.05;115.28;;;3.00;63.50;;;;;;5070104;28;20078;-60
2022/01/26 06:35:17;;;;;;;266.23;123.65;;;3.00;64.20;;;;;;5064950;28;20051;-60
2022/01/26 06:37:46;;;;;;;226.43;109.80;;;2.90;63.50;;;;;;5065394;28;20052;-60
2022/01/26 06:40:12;;;;;;;296.73;132.23;;;2.90;63.10;;;;;;5069256;28;20115;-57
2022/01/26 06:42:51;;;;;;;290.50;133.07;;;2.80;63.70;;;;;;5072058;28;20025;-60
2022/01/26 06:45:20;;;;;;;385.98;181.07;;;2.70;63.50;;;;;;5070137;28;20711;-59
2022/01/26 06:50:21;;;;;;;239.85;115.35;;;2.80;62.20;;;;;;5072886;28;20021;-58
2022/01/26 06:52:47;;;;;;;224.18;110.50;;;2.90;62.80;;;;;;5073017;28;20020;-60
2022/01/26 06:55:15;;;;;;;194.57;97.43;;;2.90;62.00;;;;;;5067031;28;20360;-60
2022/01/26 06:57:40;;;;;;;252.75;126.82;;;2.90;61.90;;;;;;5065281;28;20061;-59
2022/01/26 07:00:08;;;;;;;243.13;116.20;;;2.90;65.10;;;;;;5050923;28;20469;-58
2022/01/26 07:02:36;;;;;;;366.85;174.93;;;2.80;64.20;;;;;;5070152;28;20482;-54
2022/01/26 07:05:01;;;;;;;299.67;146.00;;;2.70;65.10;;;;;;5072713;28;20483;-60
2022/01/26 07:07:27;;;;;;;205.02;99.78;;;2.70;65.00;;;;;;5073436;28;20025;-57
2022/01/26 07:09:53;;;;;;;196.55;94.72;;;2.70;64.30;;;;;;5073095;28;20025;-60
2022/01/26 07:12:18;;;;;;;188.63;91.97;;;2.70;64.20;;;;;;5073394;28;20027;-60
2022/01/26 07:22:55;;;;;;;160.52;82.43;;;3.20;62.40;;;;;;5071488;28;20376;-59
2022/01/26 07:25:21;;;;;;;161.88;78.75;;;3.20;60.40;;;;;;5069668;28;20024;-61
2022/01/26 07:27:47;;;;;;;147.77;72.55;;;3.30;60.20;;;;;;5070347;28;20035;-59
2022/01/26 07:30:13;;;;;;;163.95;79.25;;;3.30;60.30;;;;;;5070499;28;20032;-61
2022/01/26 07:32:39;;;;;;;161.32;75.57;;;3.40;59.20;;;;;;5051675;28;20028;-60
2022/01/26 07:35:05;;;;;;;145.50;71.57;;;3.40;57.30;;;;;;5069326;28;20367;-60
2022/01/26 07:37:31;;;;;;;120.97;61.40;;;3.40;57.30;;;;;;5069425;28;20106;-61
2022/01/26 07:40:07;;;;;;;136.77;68.15;;;3.50;58.00;;;;;;5071099;28;20041;-61
2022/01/26 07:42:34;;;;;;;135.55;64.93;;;3.50;57.50;;;;;;5066967;28;20056;-61
2022/01/26 07:45:02;;;;;;;178.70;88.10;;;3.60;57.80;;;;;;5068500;28;20020;-61
2022/01/26 07:47:31;;;;;;;188.18;91.15;;;3.60;58.30;;;;;;5070548;28;20025;-60
2022/01/26 07:49:58;;;;;;;264.73;126.25;;;3.60;58.40;;;;;;5066884;28;20027;-59
2022/01/26 07:52:25;;;;;;;237.30;113.00;;;3.60;58.20;;;;;;5059097;28;20013;-60
2022/01/26 07:54:52;;;;;;;205.73;102.63;;;3.50;57.40;;;;;;5070334;28;20020;-60
2022/01/26 07:57:19;;;;;;;190.05;93.88;;;3.40;57.50;;;;;;5066262;28;20028;-59
2022/01/26 07:59:45;;;;;;;165.32;87.35;;;3.40;58.20;;;;;;5065813;28;20070;-61
2022/01/26 08:02:10;;;;;;;160.32;80.80;;;3.40;58.10;;;;;;5064007;28;20025;-59
2022/01/26 08:04:36;;;;;;;214.27;103.97;;;3.50;57.90;;;;;;5063715;28;20153;-59
2022/01/26 08:07:02;;;;;;;220.48;106.55;;;3.60;58.10;;;;;;5056637;28;20534;-60
2022/01/26 08:09:28;;;;;;;216.05;108.70;;;3.60;57.90;;;;;;5056168;28;20547;-60
2022/01/26 08:11:53;;;;;;;206.40;100.32;;;3.60;57.10;;;;;;5060819;28;20103;-61
2022/01/26 08:14:19;;;;;;;198.15;97.05;;;3.60;57.40;;;;;;5058009;28;20033;-62
2022/01/26 08:16:45;;;;;;;193.65;94.70;;;3.60;57.30;;;;;;5067218;28;20032;-61
2022/01/26 08:19:14;;;;;;;254.52;118.28;;;3.70;57.10;;;;;;5071189;28;20032;-59
2022/01/26 08:21:43;;;;;;;279.00;124.90;;;3.80;57.30;;;;;;5070815;28;20031;-60
2022/01/26 08:24:15;;;;;;;241.13;111.95;;;3.80;57.10;;;;;;5072231;28;20024;-60
2022/01/26 08:26:47;;;;;;;201.07;97.03;;;3.80;55.90;;;;;;5050690;28;20110;-62
2022/01/26 08:29:25;;;;;;;185.40;91.65;;;3.80;56.40;;;;;;5070515;28;20032;-61
2022/01/26 08:31:51;;;;;;;174.23;82.88;;;3.90;55.50;;;;;;5055772;28;20025;-61
2022/01/26 08:34:17;;;;;;;164.63;82.18;;;4.00;56.70;;;;;;5066801;28;20025;-61
2022/01/26 08:36:43;;;;;;;165.88;81.47;;;4.00;55.30;;;;;;5065246;28;20134;-59
2022/01/26 08:39:09;;;;;;;159.25;78.47;;;4.00;54.10;;;;;;5070088;28;20098;-60
2022/01/26 08:41:35;;;;;;;182.32;91.00;;;3.90;54.10;;;;;;5065981;28;20028;-62
2022/01/26 08:44:02;;;;;;;146.00;73.82;;;4.00;55.20;;;;;;5069941;28;20025;-62
2022/01/26 08:46:29;;;;;;;132.85;68.90;;;3.90;54.70;;;;;;5064213;28;20102;-60
2022/01/26 08:48:54;;;;;;;155.13;78.82;;;4.00;54.40;;;;;;5048668;28;20045;-61
2022/01/26 08:51:21;;;;;;;132.30;68.05;;;4.00;53.90;;;;;;5071451;28;20119;-61
2022/01/26 08:53:47;;;;;;;117.25;60.88;;;4.00;54.00;;;;;;5053784;28;20028;-59
2022/01/26 08:56:13;;;;;;;117.22;58.33;;;4.10;54.00;;;;;;5074753;28;20089;-61
2022/01/26 08:58:39;;;;;;;127.45;63.30;;;4.10;53.90;;;;;;5071873;28;20025;-61
2022/01/26 09:01:05;;;;;;;117.35;59.08;;;4.10;54.30;;;;;;5070413;28;20021;-59
2022/01/26 09:03:37;;;;;;;132.65;68.53;;;4.20;54.00;;;;;;5069351;28;20375;-61
2022/01/26 09:06:03;;;;;;;128.15;61.75;;;4.30;53.90;;;;;;5069639;28;20078;-60
2022/01/26 09:08:29;;;;;;;119.50;61.85;;;4.40;54.70;;;;;;5072615;28;20032;-59
2022/01/26 09:11:00;;;;;;;138.68;70.20;;;4.40;54.50;;;;;;5072142;28;20112;-63
2022/01/26 09:13:29;;;;;;;199.70;99.78;;;4.30;53.20;;;;;;5070795;28;20107;-63
2022/01/26 09:15:55;;;;;;;244.73;120.97;;;4.40;53.20;;;;;;5064876;28;20086;-62
2022/01/26 09:18:31;;;;;;;255.10;121.40;;;4.30;53.50;;;;;;5072226;28;20028;-62
2022/01/26 09:20:57;;;;;;;252.18;122.90;;;4.20;54.10;;;;;;5074573;28;20025;-60
2022/01/26 09:23:23;;;;;;;205.68;101.65;;;4.20;54.30;;;;;;5073764;28;20566;-59
2022/01/26 09:25:48;;;;;;;255.27;124.03;;;4.20;54.40;;;;;;5073000;28;20091;-63
2022/01/26 09:28:14;;;;;;;255.15;122.07;;;4.30;54.20;;;;;;5072945;28;20094;-61
2022/01/26 09:30:40;;;;;;;227.45;114.15;;;4.20;54.30;;;;;;5073321;28;20025;-61
2022/01/26 09:33:05;;;;;;;197.02;98.57;;;4.20;54.40;;;;;;5074998;28;20024;-59
2022/01/26 09:35:31;;;;;;;231.95;117.55;;;4.20;55.30;;;;;;5074649;28;20069;-61
2022/01/26 09:37:57;;;;;;;236.80;119.10;;;4.30;54.70;;;;;;5066318;28;20368;-60
2022/01/26 09:40:25;;;;;;;193.95;105.00;;;4.30;54.30;;;;;;5070287;28;20099;-60
2022/01/26 09:42:51;;;;;;;190.95;100.68;;;4.30;55.40;;;;;;5071087;28;20085;-62
2022/01/26 09:45:18;;;;;;;207.65;103.28;;;4.30;55.00;;;;;;5072400;28;20024;-60
2022/01/26 09:47:46;;;;;;;220.50;110.40;;;4.40;55.80;;;;;;5073584;28;20029;-57
2022/01/26 09:50:12;;;;;;;211.30;104.45;;;4.40;54.30;;;;;;5073225;28;20020;-57
2022/01/26 09:52:46;;;;;;;286.23;142.55;;;4.40;54.50;;;;;;5071395;28;20100;-62
2022/01/26 09:55:12;;;;;;;303.92;147.15;;;4.40;53.70;;;;;;5054257;28;20529;-61
2022/01/26 09:57:42;;;;;;;247.57;128.18;;;4.30;54.50;;;;;;5070613;28;20021;-61
2022/01/26 10:00:08;;;;;;;210.02;113.95;;;4.20;54.90;;;;;;5070599;28;20051;-62
2022/01/26 10:02:35;;;;;;;218.25;114.88;;;4.30;55.00;;;;;;5068034;28;20135;-59
2022/01/26 10:05:08;;;;;;;250.20;124.80;;;4.40;54.40;;;;;;5070554;28;20028;-59
2022/01/26 10:15:39;;;;;;;360.00;185.18;;;4.60;54.00;;;;;;5074634;28;20039;-64
2022/01/26 10:18:09;;;;;;;298.85;150.43;;;4.70;54.10;;;;;;5072813;28;20024;-69
2022/01/26 10:20:48;;;;;;;254.10;133.88;;;4.70;54.30;;;;;;5066929;28;20029;-59
2022/01/26 10:23:19;;;;;;;338.02;173.57;;;4.70;54.40;;;;;;5060091;28;20021;-60
2022/01/26 10:26:08;;;;;;;269.65;139.38;;;4.70;55.00;;;;;;5055668;28;20044;-63
2022/01/26 10:29:05;;;;;;;249.07;132.00;;;4.60;55.50;;;;;;5054541;28;20116;-69
2022/01/26 10:31:32;;;;;;;248.68;131.93;;;4.60;55.50;;;;;;5074544;28;20090;-54
2022/01/26 10:33:59;;;;;;;241.57;131.43;;;4.70;55.20;;;;;;5069991;28;20486;-57
2022/01/26 10:36:33;;;;;;;229.30;124.30;;;4.80;55.40;;;;;;5064886;28;20040;-63
2022/01/26 10:39:05;;;;;;;227.75;114.75;;;4.80;55.50;;;;;;5070544;28;20028;-53
2022/01/26 10:41:31;;;;;;;206.25;108.25;;;4.80;55.40;;;;;;5071285;28;20032;-56
2022/01/26 10:43:59;;;;;;;219.88;115.20;;;4.90;55.50;;;;;;5053979;28;20025;-53
2022/01/26 10:46:27;;;;;;;187.90;99.78;;;4.80;55.40;;;;;;5069894;28;20108;-60
2022/01/26 10:49:07;;;;;;;164.57;89.03;;;4.80;55.70;;;;;;5070030;28;20028;-53
2022/01/26 10:54:21;;;;;;;164.18;84.60;;;4.80;55.90;;;;;;5064470;28;20075;-62
2022/01/26 10:56:48;;;;;;;172.90;93.75;;;4.80;55.90;;;;;;5054465;28;20025;-61
2022/01/26 10:59:14;;;;;;;158.80;86.22;;;4.80;56.00;;;;;;5061654;28;20056;-60
2022/01/26 11:01:40;;;;;;;162.63;85.15;;;4.90;57.00;;;;;;5061005;28;20040;-54
2022/01/26 11:04:07;;;;;;;172.93;91.18;;;4.90;56.60;;;;;;5071956;28;20092;-58
2022/01/26 11:06:35;;;;;;;174.77;92.93;;;5.00;56.20;;;;;;5052997;28;20021;-59
2022/01/26 11:09:10;;;;;;;158.10;82.88;;;5.00;56.20;;;;;;5057975;28;20372;-62
2022/01/26 11:11:36;;;;;;;174.02;85.68;;;5.00;56.90;;;;;;5060542;28;21079;-61
2022/01/26 11:14:13;;;;;;;167.82;87.00;;;5.00;56.40;;;;;;5062925;28;20025;-56
2022/01/26 11:17:03;;;;;;;154.10;79.78;;;5.00;56.60;;;;;;5061517;28;20028;-59
2022/01/26 11:19:43;;;;;;;124.82;69.45;;;5.00;57.40;;;;;;5028541;28;20033;-56
2022/01/26 11:22:10;;;;;;;135.85;73.13;;;5.00;57.20;;;;;;5061634;28;20048;-56
2022/01/26 11:24:43;;;;;;;148.70;78.85;;;5.00;57.20;;;;;;5059783;28;20041;-57
2022/01/26 11:27:09;;;;;;;164.15;88.97;;;5.10;56.70;;;;;;5059279;28;20581;-63
2022/01/26 11:29:38;;;;;;;137.95;73.75;;;5.00;57.00;;;;;;5061196;28;20034;-56
2022/01/26 11:32:13;;;;;;;127.82;70.53;;;4.90;57.70;;;;;;5064958;28;20033;-57
2022/01/26 11:34:39;;;;;;;119.20;65.25;;;4.90;57.80;;;;;;5054580;28;20033;-57
2022/01/26 11:37:15;;;;;;;143.70;75.65;;;5.00;57.80;;;;;;5061111;28;20041;-58
2022/01/26 11:45:30;;;;;;;153.95;78.30;;;4.80;59.30;;;;;;5069498;28;20051;-54
2022/01/26 11:48:12;;;;;;;139.30;71.28;;;4.90;58.60;;;;;;5068916;28;20078;-54
2022/01/26 11:50:45;;;;;;;134.77;66.60;;;5.10;58.90;;;;;;5069400;28;20103;-57
2022/01/26 11:53:15;;;;;;;120.50;64.93;;;5.10;58.10;;;;;;5057752;28;20085;-57
2022/01/26 11:55:48;;;;;;;211.43;102.72;;;5.20;58.40;;;;;;5054881;28;20024;-52
2022/01/26 11:58:28;;;;;;;118.65;64.45;;;5.20;57.80;;;;;;5059890;28;20382;-57
2022/01/26 12:03:45;;;;;;;110.95;59.20;;;5.20;58.90;;;;;;5051012;28;20040;-56
2022/01/26 12:06:19;;;;;;;110.95;55.78;;;5.20;59.10;;;;;;5053939;28;20387;-58
2022/01/26 12:08:45;;;;;;;101.13;54.75;;;5.20;59.00;;;;;;5056773;28;20110;-56
2022/01/26 12:11:16;;;;;;;107.93;58.25;;;5.30;58.70;;;;;;5061703;28;20607;-57
2022/01/26 12:13:45;;;;;;;105.28;57.15;;;5.30;58.60;;;;;;5058907;28;20474;-57
2022/01/26 12:16:19;;;;;;;108.63;58.60;;;5.30;58.60;;;;;;5054190;28;20033;-57
2022/01/26 12:18:59;;;;;;;96.07;53.60;;;5.30;59.10;;;;;;5053374;28;20025;-55
2022/01/26 12:35:16;;;;;;;77.90;45.97;;;5.10;61.40;;;;;;5061090;28;20012;-55
2022/01/26 12:43:49;;;;;;;99.30;50.00;;;5.20;62.30;;;;;;5053566;28;20039;-55
2022/01/26 12:46:24;;;;;;;114.37;57.40;;;5.10;62.80;;;;;;5053354;28;20035;-55
2022/01/26 12:49:00;;;;;;;85.22;43.53;;;5.20;62.90;;;;;;5053664;28;20036;-55
2022/01/26 12:51:28;;;;;;;92.13;46.80;;;5.10;62.10;;;;;;5054712;28;20025;-58
2022/01/26 12:53:56;;;;;;;81.60;44.15;;;5.20;62.40;;;;;;5054354;28;20021;-56
2022/01/26 12:56:26;;;;;;;114.30;52.10;;;5.20;63.20;;;;;;5055645;28;20028;-56
2022/01/26 12:59:09;;;;;;;91.32;48.00;;;5.20;63.40;;;;;;5056017;28;20025;-57
2022/01/26 13:01:36;;;;;;;98.80;47.45;;;5.30;62.50;;;;;;5056191;28;20470;-57
2022/01/26 13:04:04;;;;;;;88.93;46.45;;;5.30;62.60;;;;;;5056445;28;20386;-58
2022/01/26 13:06:34;;;;;;;83.50;43.88;;;5.30;62.50;;;;;;5055862;28;20364;-58
2022/01/26 13:09:01;;;;;;;89.60;46.22;;;5.30;63.20;;;;;;5056021;28;20048;-57
2022/01/26 13:11:33;;;;;;;123.20;57.83;;;5.30;62.90;;;;;;5056219;28;20104;-53
2022/01/26 13:14:27;;;;;;;106.75;52.17;;;5.30;62.90;;;;;;5056177;28;20079;-56
2022/01/26 13:19:39;;;;;;;87.07;46.42;;;5.30;62.70;;;;;;5055520;28;20025;-53
2022/01/26 13:23:22;;;;;;;86.95;47.47;;;5.30;63.30;;;;;;5055061;28;20032;-50
2022/01/26 13:31:43;;;;;;;104.00;51.60;;;5.20;64.30;;;;;;5056069;28;20038;-58
2022/01/26 13:36:04;;;;;;;74.85;40.85;;;5.10;65.50;;;;;;5055167;28;20059;-52
2022/01/26 13:52:19;;;;;;;67.10;37.28;;;5.10;66.80;;;;;;5055136;28;20021;-53
2022/01/26 13:59:16;;;;;;;52.42;31.63;;;5.40;65.50;;;;;;5055054;28;20025;-53
2022/01/26 14:01:45;;;;;;;57.17;34.70;;;5.30;66.30;;;;;;5055139;28;20028;-54
2022/01/26 14:04:12;;;;;;;59.97;33.75;;;5.40;66.50;;;;;;5055070;28;20024;-54
2022/01/26 14:06:38;;;;;;;62.30;36.92;;;5.40;65.80;;;;;;5055010;28;20017;-54
2022/01/26 14:09:04;;;;;;;47.95;30.90;;;5.40;66.00;;;;;;5054850;28;20033;-52
2022/01/26 14:11:30;;;;;;;47.63;29.10;;;5.40;65.60;;;;;;5055054;28;20028;-55
2022/01/26 14:13:57;;;;;;;46.88;27.67;;;5.40;66.90;;;;;;5054725;28;20025;-53
2022/01/26 14:16:25;;;;;;;54.33;32.03;;;5.30;66.60;;;;;;5055042;28;20028;-54
2022/01/26 14:26:50;;;;;;;60.72;35.95;;;5.00;70.90;;;;;;5069556;28;20106;-52
2022/01/26 14:29:53;;;;;;;63.05;37.60;;;5.10;70.00;;;;;;5094751;28;20043;-56
2022/01/26 14:32:31;;;;;;;106.65;54.58;;;5.10;70.50;;;;;;5094308;28;20028;-58
2022/01/26 14:35:16;;;;;;;86.82;47.72;;;4.70;74.00;;;;;;5094362;28;20032;-54
2022/01/26 15:00:05;;;;;;;92.65;48.92;;;5.20;72.00;;;;;;5094725;28;20039;-55
2022/01/26 15:42:54;;;;;;;82.63;44.13;;;5.10;77.50;;;;;;5093165;28;20027;-55
2022/01/26 15:58:25;;;;;;;248.48;119.40;;;5.10;79.40;;;;;;5093551;28;20504;-55
2022/01/26 17:43:29;;;;;;;282.58;139.15;;;3.50;99.90;;;;;;5095374;28;20534;-55
2022/01/26 18:32:41;;;;;;;239.93;113.95;;;3.80;99.90;;;;;;5095078;28;20210;-53
2022/01/26 18:40:47;;;;;;;;;;;3.80;99.90;;;;;;5095066;28;20115;-56
2022/01/26 18:51:26;;;;;;;416.60;219.55;;;3.70;99.90;;;;;;5094351;28;20039;-58
2022/01/26 18:53:51;;;;;;;407.08;215.18;;;3.70;99.90;;;;;;5094069;28;20378;-55
2022/01/26 18:56:17;;;;;;;427.83;219.88;;;3.70;99.90;;;;;;5094104;28;20051;-56
2022/01/26 18:58:43;;;;;;;407.25;205.20;;;3.80;99.90;;;;;;5094136;28;20424;-55
2022/01/26 19:01:09;;;;;;;432.65;240.40;;;3.90;99.90;;;;;;5094124;28;20430;-55
2022/01/26 19:03:35;;;;;;;393.08;212.32;;;3.90;99.90;;;;;;5094365;28;20023;-54
2022/01/26 19:06:02;;;;;;;442.30;262.10;;;3.90;99.90;;;;;;5094290;28;20385;-55
2022/01/26 19:08:29;;;;;;;447.83;252.52;;;3.90;99.90;;;;;;5075662;28;20495;-56
2022/01/26 19:10:56;;;;;;;386.20;213.15;;;3.80;99.90;;;;;;5093715;28;20028;-49
2022/01/26 19:13:27;;;;;;;337.83;176.07;;;3.70;99.90;;;;;;5094141;28;20028;-56
2022/01/26 19:15:57;;;;;;;314.65;168.30;;;3.80;99.90;;;;;;5092941;28;20020;-55
2022/01/26 19:18:36;;;;;;;299.15;146.95;;;3.80;99.90;;;;;;5093953;28;20028;-57
2022/01/26 19:21:13;;;;;;;249.05;128.60;;;3.80;99.90;;;;;;5093742;28;20045;-52
2022/01/26 19:26:15;;;;;;;200.80;104.45;;;3.90;99.90;;;;;;5094040;28;20035;-54
2022/01/26 19:28:45;;;;;;;216.98;107.07;;;3.90;99.90;;;;;;5093839;28;20039;-52
2022/01/26 19:45:56;;;;;;;319.83;146.48;;;4.10;99.90;;;;;;5031259;28;20040;-52
2022/01/26 19:51:03;;;;;;;259.95;129.73;;;4.00;99.90;;;;;;5093800;28;20026;-55
2022/01/26 19:53:28;;;;;;;277.42;138.07;;;4.00;99.90;;;;;;5093091;28;20032;-54